sensor_id;sensor_type;location;lat;lon;timestamp;P1;durP1;ratioP1;P2;durP2;ratioP2
6517;SDS011;3292;48.944;9.240;2023-05-07T00:01:25;3.47;;;3.10;;
6517;SDS011;3292;48.944;9.240;2023-05-07T00:03:52;6.80;;;3.47;;
6517;SDS011;3292;48.944;9.240;2023-05-07T00:06:18;5.27;;;3.20;;
6517;SDS011;3292;48.944;9.240;2023-05-07T00:08:45;3.87;;;3.00;;
6517;SDS011;3292;48.944;9.240;2023-05-07T00:11:12;4.13;;;3.27;;
6517;SDS011;3292;48.944;9.240;2023-05-07T00:13:41;3.07;;;2.80;;
6517;SDS011;3292;48.944;9.240;2023-05-07T00:16:07;3.73;;;3.23;;
6517;SDS011;3292;48.944;9.240;2023-05-07T00:18:34;5.13;;;3.10;;
6517;SDS011;3292;48.944;9.240;2023-05-07T00:21:01;5.17;;;3.30;;
6517;SDS011;3292;48.944;9.240;2023-05-07T00:23:28;3.57;;;2.90;;
6517;SDS011;3292;48.944;9.240;2023-05-07T00:25:55;3.43;;;2.63;;
6517;SDS011;3292;48.944;9.240;2023-05-07T00:28:22;3.40;;;3.10;;
6517;SDS011;3292;48.944;9.240;2023-05-07T00:30:50;3.73;;;3.30;;
6517;SDS011;3292;48.944;9.240;2023-05-07T00:33:17;4.33;;;3.93;;
6517;SDS011;3292;48.944;9.240;2023-05-07T00:35:45;5.10;;;4.20;;
6517;SDS011;3292;48.944;9.240;2023-05-07T00:38:12;6.77;;;4.60;;
6517;SDS011;3292;48.944;9.240;2023-05-07T00:40:39;6.93;;;4.30;;
6517;SDS011;3292;48.944;9.240;2023-05-07T00:43:06;4.17;;;3.77;;
6517;SDS011;3292;48.944;9.240;2023-05-07T00:45:33;5.47;;;3.60;;
6517;SDS011;3292;48.944;9.240;2023-05-07T00:48:02;4.20;;;3.70;;
6517;SDS011;3292;48.944;9.240;2023-05-07T00:50:29;5.07;;;3.63;;
6517;SDS011;3292;48.944;9.240;2023-05-07T00:52:57;3.80;;;3.50;;
6517;SDS011;3292;48.944;9.240;2023-05-07T00:55:25;3.90;;;3.27;;
6517;SDS011;3292;48.944;9.240;2023-05-07T00:57:52;3.67;;;3.37;;
6517;SDS011;3292;48.944;9.240;2023-05-07T01:00:19;4.20;;;3.77;;
6517;SDS011;3292;48.944;9.240;2023-05-07T01:02:46;4.70;;;3.90;;
6517;SDS011;3292;48.944;9.240;2023-05-07T01:05:15;3.90;;;3.60;;
6517;SDS011;3292;48.944;9.240;2023-05-07T01:07:43;4.30;;;3.90;;
6517;SDS011;3292;48.944;9.240;2023-05-07T01:10:10;3.43;;;3.17;;
6517;SDS011;3292;48.944;9.240;2023-05-07T01:12:38;3.33;;;3.03;;
6517;SDS011;3292;48.944;9.240;2023-05-07T01:15:07;4.37;;;3.00;;
6517;SDS011;3292;48.944;9.240;2023-05-07T01:17:35;3.70;;;3.33;;
6517;SDS011;3292;48.944;9.240;2023-05-07T01:20:03;3.47;;;3.17;;
6517;SDS011;3292;48.944;9.240;2023-05-07T01:22:33;4.30;;;2.97;;
6517;SDS011;3292;48.944;9.240;2023-05-07T01:25:01;3.73;;;3.20;;
6517;SDS011;3292;48.944;9.240;2023-05-07T01:27:29;3.70;;;3.40;;
6517;SDS011;3292;48.944;9.240;2023-05-07T01:29:56;4.23;;;3.70;;
6517;SDS011;3292;48.944;9.240;2023-05-07T01:32:24;4.17;;;3.40;;
6517;SDS011;3292;48.944;9.240;2023-05-07T01:34:58;4.03;;;3.50;;
6517;SDS011;3292;48.944;9.240;2023-05-07T01:37:27;3.53;;;3.23;;
6517;SDS011;3292;48.944;9.240;2023-05-07T01:39:56;5.23;;;3.40;;
6517;SDS011;3292;48.944;9.240;2023-05-07T01:42:23;4.83;;;3.27;;
6517;SDS011;3292;48.944;9.240;2023-05-07T01:44:50;5.17;;;3.10;;
6517;SDS011;3292;48.944;9.240;2023-05-07T01:47:17;5.10;;;3.73;;
6517;SDS011;3292;48.944;9.240;2023-05-07T01:49:45;4.90;;;3.60;;
6517;SDS011;3292;48.944;9.240;2023-05-07T01:52:12;4.20;;;3.10;;
6517;SDS011;3292;48.944;9.240;2023-05-07T01:54:39;3.50;;;3.20;;
6517;SDS011;3292;48.944;9.240;2023-05-07T01:57:08;3.60;;;3.13;;
6517;SDS011;3292;48.944;9.240;2023-05-07T01:59:35;3.40;;;3.10;;
6517;SDS011;3292;48.944;9.240;2023-05-07T02:02:01;4.33;;;3.13;;
6517;SDS011;3292;48.944;9.240;2023-05-07T02:04:28;3.30;;;3.00;;
6517;SDS011;3292;48.944;9.240;2023-05-07T02:06:55;3.10;;;2.90;;
6517;SDS011;3292;48.944;9.240;2023-05-07T02:09:22;3.43;;;3.03;;
6517;SDS011;3292;48.944;9.240;2023-05-07T02:11:49;3.73;;;3.37;;
6517;SDS011;3292;48.944;9.240;2023-05-07T02:14:17;7.57;;;3.37;;
6517;SDS011;3292;48.944;9.240;2023-05-07T02:16:45;3.77;;;3.27;;
6517;SDS011;3292;48.944;9.240;2023-05-07T02:19:12;3.67;;;3.37;;
6517;SDS011;3292;48.944;9.240;2023-05-07T02:21:38;3.50;;;3.17;;
6517;SDS011;3292;48.944;9.240;2023-05-07T02:24:05;3.63;;;3.30;;
6517;SDS011;3292;48.944;9.240;2023-05-07T02:26:32;3.73;;;3.20;;
6517;SDS011;3292;48.944;9.240;2023-05-07T02:28:59;4.37;;;3.30;;
6517;SDS011;3292;48.944;9.240;2023-05-07T02:31:27;5.20;;;3.50;;
6517;SDS011;3292;48.944;9.240;2023-05-07T02:33:54;3.70;;;3.00;;
6517;SDS011;3292;48.944;9.240;2023-05-07T02:36:21;4.70;;;3.40;;
6517;SDS011;3292;48.944;9.240;2023-05-07T02:38:47;3.40;;;3.10;;
6517;SDS011;3292;48.944;9.240;2023-05-07T02:41:14;4.20;;;3.80;;
6517;SDS011;3292;48.944;9.240;2023-05-07T02:43:41;4.43;;;3.97;;
6517;SDS011;3292;48.944;9.240;2023-05-07T02:46:08;5.13;;;3.70;;
6517;SDS011;3292;48.944;9.240;2023-05-07T02:48:36;4.33;;;3.53;;
6517;SDS011;3292;48.944;9.240;2023-05-07T02:51:04;4.30;;;3.90;;
6517;SDS011;3292;48.944;9.240;2023-05-07T02:53:31;4.13;;;3.67;;
6517;SDS011;3292;48.944;9.240;2023-05-07T02:55:59;6.37;;;4.30;;
6517;SDS011;3292;48.944;9.240;2023-05-07T02:58:26;4.40;;;4.00;;
6517;SDS011;3292;48.944;9.240;2023-05-07T03:00:53;4.10;;;3.70;;
6517;SDS011;3292;48.944;9.240;2023-05-07T03:03:20;5.73;;;3.90;;
6517;SDS011;3292;48.944;9.240;2023-05-07T03:05:48;4.30;;;3.80;;
6517;SDS011;3292;48.944;9.240;2023-05-07T03:08:15;3.77;;;3.43;;
6517;SDS011;3292;48.944;9.240;2023-05-07T03:10:42;4.77;;;4.00;;
6517;SDS011;3292;48.944;9.240;2023-05-07T03:13:09;5.67;;;4.30;;
6517;SDS011;3292;48.944;9.240;2023-05-07T03:15:36;4.30;;;3.90;;
6517;SDS011;3292;48.944;9.240;2023-05-07T03:18:02;5.17;;;4.03;;
6517;SDS011;3292;48.944;9.240;2023-05-07T03:20:30;4.50;;;4.10;;
6517;SDS011;3292;48.944;9.240;2023-05-07T03:22:58;4.83;;;3.87;;
6517;SDS011;3292;48.944;9.240;2023-05-07T03:25:25;5.37;;;3.80;;
6517;SDS011;3292;48.944;9.240;2023-05-07T03:27:55;5.07;;;4.23;;
6517;SDS011;3292;48.944;9.240;2023-05-07T03:30:21;6.00;;;3.77;;
6517;SDS011;3292;48.944;9.240;2023-05-07T03:32:48;5.90;;;3.67;;
6517;SDS011;3292;48.944;9.240;2023-05-07T03:35:15;4.43;;;3.80;;
6517;SDS011;3292;48.944;9.240;2023-05-07T03:37:42;4.53;;;4.13;;
6517;SDS011;3292;48.944;9.240;2023-05-07T03:40:11;4.67;;;4.20;;
6517;SDS011;3292;48.944;9.240;2023-05-07T03:42:38;5.37;;;4.50;;
6517;SDS011;3292;48.944;9.240;2023-05-07T03:45:05;5.73;;;4.60;;
6517;SDS011;3292;48.944;9.240;2023-05-07T03:47:32;5.37;;;4.67;;
6517;SDS011;3292;48.944;9.240;2023-05-07T03:49:59;5.10;;;4.40;;
6517;SDS011;3292;48.944;9.240;2023-05-07T03:52:26;4.23;;;3.93;;
6517;SDS011;3292;48.944;9.240;2023-05-07T03:54:53;4.50;;;4.10;;
6517;SDS011;3292;48.944;9.240;2023-05-07T03:57:21;4.80;;;4.27;;
6517;SDS011;3292;48.944;9.240;2023-05-07T03:59:48;5.33;;;4.30;;
6517;SDS011;3292;48.944;9.240;2023-05-07T04:02:15;4.57;;;4.17;;
6517;SDS011;3292;48.944;9.240;2023-05-07T04:04:42;4.30;;;3.90;;
6517;SDS011;3292;48.944;9.240;2023-05-07T04:07:08;4.30;;;3.90;;
6517;SDS011;3292;48.944;9.240;2023-05-07T04:09:35;6.40;;;4.20;;
6517;SDS011;3292;48.944;9.240;2023-05-07T04:12:02;4.77;;;4.37;;
6517;SDS011;3292;48.944;9.240;2023-05-07T04:14:31;5.20;;;4.57;;
6517;SDS011;3292;48.944;9.240;2023-05-07T04:16:58;4.37;;;3.93;;
6517;SDS011;3292;48.944;9.240;2023-05-07T04:19:25;4.73;;;3.97;;
6517;SDS011;3292;48.944;9.240;2023-05-07T04:21:51;5.93;;;4.23;;
6517;SDS011;3292;48.944;9.240;2023-05-07T04:24:18;4.53;;;4.13;;
6517;SDS011;3292;48.944;9.240;2023-05-07T04:26:45;3.93;;;3.53;;
6517;SDS011;3292;48.944;9.240;2023-05-07T04:29:12;4.90;;;4.50;;
6517;SDS011;3292;48.944;9.240;2023-05-07T04:31:40;4.43;;;4.03;;
6517;SDS011;3292;48.944;9.240;2023-05-07T04:34:09;5.97;;;4.83;;
6517;SDS011;3292;48.944;9.240;2023-05-07T04:36:36;4.70;;;4.30;;
6517;SDS011;3292;48.944;9.240;2023-05-07T04:39:03;4.43;;;4.03;;
6517;SDS011;3292;48.944;9.240;2023-05-07T04:41:31;4.33;;;4.00;;
6517;SDS011;3292;48.944;9.240;2023-05-07T04:43:58;4.83;;;4.00;;
6517;SDS011;3292;48.944;9.240;2023-05-07T04:46:25;4.20;;;3.90;;
6517;SDS011;3292;48.944;9.240;2023-05-07T04:48:53;4.10;;;3.70;;
6517;SDS011;3292;48.944;9.240;2023-05-07T04:51:19;5.63;;;3.77;;
6517;SDS011;3292;48.944;9.240;2023-05-07T04:53:46;4.43;;;4.03;;
6517;SDS011;3292;48.944;9.240;2023-05-07T04:56:13;4.70;;;4.07;;
6517;SDS011;3292;48.944;9.240;2023-05-07T04:58:40;6.47;;;5.87;;
6517;SDS011;3292;48.944;9.240;2023-05-07T05:01:07;7.37;;;4.60;;
6517;SDS011;3292;48.944;9.240;2023-05-07T05:03:34;5.27;;;4.80;;
6517;SDS011;3292;48.944;9.240;2023-05-07T05:06:02;4.47;;;4.07;;
6517;SDS011;3292;48.944;9.240;2023-05-07T05:08:29;4.77;;;4.33;;
6517;SDS011;3292;48.944;9.240;2023-05-07T05:10:56;5.30;;;4.90;;
6517;SDS011;3292;48.944;9.240;2023-05-07T05:13:23;4.30;;;3.87;;
6517;SDS011;3292;48.944;9.240;2023-05-07T05:15:50;4.90;;;4.50;;
6517;SDS011;3292;48.944;9.240;2023-05-07T05:18:16;4.90;;;4.33;;
6517;SDS011;3292;48.944;9.240;2023-05-07T05:20:43;4.80;;;4.37;;
6517;SDS011;3292;48.944;9.240;2023-05-07T05:23:11;4.77;;;4.27;;
6517;SDS011;3292;48.944;9.240;2023-05-07T05:25:38;5.83;;;4.77;;
6517;SDS011;3292;48.944;9.240;2023-05-07T05:28:05;4.67;;;4.27;;
6517;SDS011;3292;48.944;9.240;2023-05-07T05:30:32;4.87;;;4.37;;
6517;SDS011;3292;48.944;9.240;2023-05-07T05:32:59;4.97;;;4.57;;
6517;SDS011;3292;48.944;9.240;2023-05-07T05:35:26;5.23;;;4.43;;
6517;SDS011;3292;48.944;9.240;2023-05-07T05:37:52;4.83;;;4.10;;
6517;SDS011;3292;48.944;9.240;2023-05-07T05:40:20;6.27;;;4.27;;
6517;SDS011;3292;48.944;9.240;2023-05-07T05:42:47;5.27;;;4.07;;
6517;SDS011;3292;48.944;9.240;2023-05-07T05:45:14;4.10;;;3.80;;
6517;SDS011;3292;48.944;9.240;2023-05-07T05:47:41;4.17;;;3.77;;
6517;SDS011;3292;48.944;9.240;2023-05-07T05:50:08;3.60;;;3.30;;
6517;SDS011;3292;48.944;9.240;2023-05-07T05:52:35;3.90;;;3.00;;
6517;SDS011;3292;48.944;9.240;2023-05-07T05:55:02;3.97;;;3.30;;
6517;SDS011;3292;48.944;9.240;2023-05-07T05:57:30;3.23;;;2.90;;
6517;SDS011;3292;48.944;9.240;2023-05-07T05:59:57;3.90;;;2.88;;
6517;SDS011;3292;48.944;9.240;2023-05-07T06:02:24;3.20;;;2.90;;
6517;SDS011;3292;48.944;9.240;2023-05-07T06:04:51;2.80;;;2.60;;
6517;SDS011;3292;48.944;9.240;2023-05-07T06:07:18;3.63;;;2.60;;
6517;SDS011;3292;48.944;9.240;2023-05-07T06:09:44;5.13;;;3.00;;
6517;SDS011;3292;48.944;9.240;2023-05-07T06:12:11;2.95;;;2.75;;
6517;SDS011;3292;48.944;9.240;2023-05-07T06:14:39;3.63;;;2.85;;
6517;SDS011;3292;48.944;9.240;2023-05-07T06:17:08;3.22;;;2.83;;
6517;SDS011;3292;48.944;9.240;2023-05-07T06:19:35;2.53;;;2.33;;
6517;SDS011;3292;48.944;9.240;2023-05-07T06:22:02;3.60;;;2.45;;
6517;SDS011;3292;48.944;9.240;2023-05-07T06:24:28;2.20;;;2.10;;
6517;SDS011;3292;48.944;9.240;2023-05-07T06:26:55;4.28;;;2.30;;
6517;SDS011;3292;48.944;9.240;2023-05-07T06:29:23;3.85;;;2.60;;
6517;SDS011;3292;48.944;9.240;2023-05-07T06:31:52;3.50;;;2.45;;
6517;SDS011;3292;48.944;9.240;2023-05-07T06:34:21;2.10;;;2.00;;
6517;SDS011;3292;48.944;9.240;2023-05-07T06:36:48;2.67;;;2.17;;
6517;SDS011;3292;48.944;9.240;2023-05-07T06:39:16;2.88;;;2.58;;
6517;SDS011;3292;48.944;9.240;2023-05-07T06:41:43;2.60;;;2.35;;
6517;SDS011;3292;48.944;9.240;2023-05-07T06:44:10;2.85;;;2.58;;
6517;SDS011;3292;48.944;9.240;2023-05-07T06:46:38;2.65;;;2.40;;
6517;SDS011;3292;48.944;9.240;2023-05-07T06:49:07;3.95;;;2.50;;
6517;SDS011;3292;48.944;9.240;2023-05-07T06:51:34;3.95;;;2.67;;
6517;SDS011;3292;48.944;9.240;2023-05-07T06:54:02;2.47;;;2.28;;
6517;SDS011;3292;48.944;9.240;2023-05-07T06:56:29;2.45;;;2.25;;
6517;SDS011;3292;48.944;9.240;2023-05-07T06:58:57;2.80;;;2.20;;
6517;SDS011;3292;48.944;9.240;2023-05-07T07:01:24;3.55;;;2.28;;
6517;SDS011;3292;48.944;9.240;2023-05-07T07:03:51;2.58;;;2.38;;
6517;SDS011;3292;48.944;9.240;2023-05-07T07:06:20;2.85;;;2.38;;
6517;SDS011;3292;48.944;9.240;2023-05-07T07:08:47;2.67;;;2.47;;
6517;SDS011;3292;48.944;9.240;2023-05-07T07:11:17;2.85;;;2.40;;
6517;SDS011;3292;48.944;9.240;2023-05-07T07:13:44;2.90;;;2.22;;
6517;SDS011;3292;48.944;9.240;2023-05-07T07:16:11;2.72;;;2.03;;
6517;SDS011;3292;48.944;9.240;2023-05-07T07:18:38;2.67;;;2.17;;
6517;SDS011;3292;48.944;9.240;2023-05-07T07:21:05;2.60;;;2.00;;
6517;SDS011;3292;48.944;9.240;2023-05-07T07:23:34;2.78;;;2.03;;
6517;SDS011;3292;48.944;9.240;2023-05-07T07:26:00;2.95;;;1.92;;
6517;SDS011;3292;48.944;9.240;2023-05-07T07:28:27;3.65;;;1.90;;
6517;SDS011;3292;48.944;9.240;2023-05-07T07:30:54;2.22;;;2.03;;
6517;SDS011;3292;48.944;9.240;2023-05-07T07:33:21;2.33;;;1.92;;
6517;SDS011;3292;48.944;9.240;2023-05-07T07:35:48;2.25;;;1.88;;
6517;SDS011;3292;48.944;9.240;2023-05-07T07:38:16;3.97;;;2.08;;
6517;SDS011;3292;48.944;9.240;2023-05-07T07:40:44;2.35;;;2.15;;
6517;SDS011;3292;48.944;9.240;2023-05-07T07:43:14;2.00;;;1.80;;
6517;SDS011;3292;48.944;9.240;2023-05-07T07:45:41;2.92;;;2.47;;
6517;SDS011;3292;48.944;9.240;2023-05-07T07:48:09;2.20;;;2.00;;
6517;SDS011;3292;48.944;9.240;2023-05-07T07:50:36;2.00;;;1.90;;
6517;SDS011;3292;48.944;9.240;2023-05-07T07:53:04;2.22;;;2.03;;
6517;SDS011;3292;48.944;9.240;2023-05-07T07:55:31;2.35;;;2.10;;
6517;SDS011;3292;48.944;9.240;2023-05-07T07:58:00;3.00;;;2.10;;
6517;SDS011;3292;48.944;9.240;2023-05-07T08:00:27;2.90;;;1.90;;
6517;SDS011;3292;48.944;9.240;2023-05-07T08:02:56;4.07;;;2.55;;
6517;SDS011;3292;48.944;9.240;2023-05-07T08:05:23;2.90;;;2.50;;
6517;SDS011;3292;48.944;9.240;2023-05-07T08:07:51;2.40;;;2.20;;
6517;SDS011;3292;48.944;9.240;2023-05-07T08:10:18;2.60;;;2.40;;
6517;SDS011;3292;48.944;9.240;2023-05-07T08:12:46;4.83;;;2.10;;
6517;SDS011;3292;48.944;9.240;2023-05-07T08:15:15;2.20;;;2.00;;
6517;SDS011;3292;48.944;9.240;2023-05-07T08:17:43;2.90;;;2.20;;
6517;SDS011;3292;48.944;9.240;2023-05-07T08:20:10;4.17;;;2.20;;
6517;SDS011;3292;48.944;9.240;2023-05-07T08:22:38;3.30;;;2.50;;
6517;SDS011;3292;48.944;9.240;2023-05-07T08:25:05;4.23;;;2.67;;
6517;SDS011;3292;48.944;9.240;2023-05-07T08:27:33;2.97;;;2.33;;
6517;SDS011;3292;48.944;9.240;2023-05-07T08:30:00;2.90;;;2.60;;
6517;SDS011;3292;48.944;9.240;2023-05-07T08:32:29;3.77;;;2.57;;
6517;SDS011;3292;48.944;9.240;2023-05-07T08:34:56;2.80;;;2.40;;
6517;SDS011;3292;48.944;9.240;2023-05-07T08:37:23;2.93;;;2.73;;
6517;SDS011;3292;48.944;9.240;2023-05-07T08:39:51;2.97;;;2.40;;
6517;SDS011;3292;48.944;9.240;2023-05-07T08:42:18;3.00;;;2.70;;
6517;SDS011;3292;48.944;9.240;2023-05-07T08:44:47;4.67;;;2.60;;
6517;SDS011;3292;48.944;9.240;2023-05-07T08:47:18;2.87;;;2.50;;
6517;SDS011;3292;48.944;9.240;2023-05-07T08:49:48;2.70;;;2.10;;
6517;SDS011;3292;48.944;9.240;2023-05-07T08:52:18;2.43;;;2.23;;
6517;SDS011;3292;48.944;9.240;2023-05-07T08:54:46;3.47;;;2.50;;
6517;SDS011;3292;48.944;9.240;2023-05-07T08:57:13;2.40;;;2.20;;
6517;SDS011;3292;48.944;9.240;2023-05-07T08:59:40;2.83;;;2.63;;
6517;SDS011;3292;48.944;9.240;2023-05-07T09:02:11;2.80;;;2.60;;
6517;SDS011;3292;48.944;9.240;2023-05-07T09:04:39;4.07;;;2.20;;
6517;SDS011;3292;48.944;9.240;2023-05-07T09:07:08;2.75;;;2.45;;
6517;SDS011;3292;48.944;9.240;2023-05-07T09:09:36;3.80;;;2.10;;
6517;SDS011;3292;48.944;9.240;2023-05-07T09:12:04;2.63;;;2.25;;
6517;SDS011;3292;48.944;9.240;2023-05-07T09:14:31;2.60;;;2.40;;
6517;SDS011;3292;48.944;9.240;2023-05-07T09:16:59;4.10;;;2.28;;
6517;SDS011;3292;48.944;9.240;2023-05-07T09:19:27;2.22;;;1.90;;
6517;SDS011;3292;48.944;9.240;2023-05-07T09:21:57;2.17;;;1.90;;
6517;SDS011;3292;48.944;9.240;2023-05-07T09:24:27;2.53;;;2.33;;
6517;SDS011;3292;48.944;9.240;2023-05-07T09:26:59;3.60;;;2.50;;
6517;SDS011;3292;48.944;9.240;2023-05-07T09:29:26;2.42;;;2.22;;
6517;SDS011;3292;48.944;9.240;2023-05-07T09:31:55;3.60;;;2.60;;
6517;SDS011;3292;48.944;9.240;2023-05-07T09:34:22;2.75;;;2.45;;
6517;SDS011;3292;48.944;9.240;2023-05-07T09:36:50;2.53;;;2.30;;
6517;SDS011;3292;48.944;9.240;2023-05-07T09:39:17;3.50;;;2.47;;
6517;SDS011;3292;48.944;9.240;2023-05-07T09:41:46;2.63;;;2.25;;
6517;SDS011;3292;48.944;9.240;2023-05-07T09:44:16;2.53;;;2.15;;
6517;SDS011;3292;48.944;9.240;2023-05-07T09:46:44;3.50;;;2.20;;
6517;SDS011;3292;48.944;9.240;2023-05-07T09:49:17;4.75;;;2.25;;
6517;SDS011;3292;48.944;9.240;2023-05-07T09:51:48;3.47;;;2.20;;
6517;SDS011;3292;48.944;9.240;2023-05-07T09:54:17;2.80;;;2.15;;
6517;SDS011;3292;48.944;9.240;2023-05-07T09:56:46;4.00;;;2.50;;
6517;SDS011;3292;48.944;9.240;2023-05-07T09:59:16;2.40;;;2.13;;
6517;SDS011;3292;48.944;9.240;2023-05-07T10:01:44;3.15;;;2.38;;
6517;SDS011;3292;48.944;9.240;2023-05-07T10:04:11;3.45;;;2.50;;
6517;SDS011;3292;48.944;9.240;2023-05-07T10:06:38;2.65;;;2.10;;
6517;SDS011;3292;48.944;9.240;2023-05-07T10:09:06;3.13;;;2.40;;
6517;SDS011;3292;48.944;9.240;2023-05-07T10:11:35;2.55;;;2.35;;
6517;SDS011;3292;48.944;9.240;2023-05-07T10:14:07;3.10;;;2.42;;
6517;SDS011;3292;48.944;9.240;2023-05-07T10:16:36;2.90;;;2.60;;
6517;SDS011;3292;48.944;9.240;2023-05-07T10:19:03;1.92;;;1.83;;
6517;SDS011;3292;48.944;9.240;2023-05-07T10:21:31;3.17;;;2.17;;
6517;SDS011;3292;48.944;9.240;2023-05-07T10:24:03;3.42;;;2.00;;
6517;SDS011;3292;48.944;9.240;2023-05-07T10:26:33;3.35;;;2.35;;
6517;SDS011;3292;48.944;9.240;2023-05-07T10:29:03;3.67;;;2.08;;
6517;SDS011;3292;48.944;9.240;2023-05-07T10:31:44;2.45;;;2.00;;
6517;SDS011;3292;48.944;9.240;2023-05-07T10:34:20;2.22;;;2.03;;
6517;SDS011;3292;48.944;9.240;2023-05-07T10:36:50;2.17;;;1.80;;
6517;SDS011;3292;48.944;9.240;2023-05-07T10:39:19;2.40;;;2.20;;
6517;SDS011;3292;48.944;9.240;2023-05-07T10:41:47;3.90;;;2.00;;
6517;SDS011;3292;48.944;9.240;2023-05-07T10:44:24;2.33;;;2.10;;
6517;SDS011;3292;48.944;9.240;2023-05-07T10:47:10;3.13;;;2.28;;
6517;SDS011;3292;48.944;9.240;2023-05-07T10:52:39;3.80;;;1.88;;
6517;SDS011;3292;48.944;9.240;2023-05-07T10:57:55;3.05;;;1.83;;
6517;SDS011;3292;48.944;9.240;2023-05-07T11:03:11;3.13;;;1.85;;
6517;SDS011;3292;48.944;9.240;2023-05-07T11:05:40;2.08;;;1.90;;
6517;SDS011;3292;48.944;9.240;2023-05-07T11:08:08;2.40;;;2.20;;
6517;SDS011;3292;48.944;9.240;2023-05-07T11:10:48;2.78;;;1.90;;
6517;SDS011;3292;48.944;9.240;2023-05-07T11:13:17;2.10;;;1.90;;
6517;SDS011;3292;48.944;9.240;2023-05-07T11:15:45;2.22;;;2.03;;
6517;SDS011;3292;48.944;9.240;2023-05-07T11:18:15;1.90;;;1.80;;
6517;SDS011;3292;48.944;9.240;2023-05-07T11:20:53;2.50;;;1.92;;
6517;SDS011;3292;48.944;9.240;2023-05-07T11:26:23;2.83;;;2.10;;
6517;SDS011;3292;48.944;9.240;2023-05-07T11:28:52;3.25;;;2.22;;
6517;SDS011;3292;48.944;9.240;2023-05-07T11:31:20;3.17;;;1.90;;
6517;SDS011;3292;48.944;9.240;2023-05-07T11:33:52;3.15;;;2.35;;
6517;SDS011;3292;48.944;9.240;2023-05-07T11:36:20;4.18;;;2.20;;
6517;SDS011;3292;48.944;9.240;2023-05-07T11:38:49;2.20;;;2.00;;
6517;SDS011;3292;48.944;9.240;2023-05-07T11:41:16;2.45;;;1.73;;
6517;SDS011;3292;48.944;9.240;2023-05-07T11:43:56;1.90;;;1.77;;
6517;SDS011;3292;48.944;9.240;2023-05-07T11:46:24;3.28;;;1.98;;
6517;SDS011;3292;48.944;9.240;2023-05-07T11:48:55;2.58;;;2.20;;
6517;SDS011;3292;48.944;9.240;2023-05-07T11:51:23;2.28;;;2.08;;
6517;SDS011;3292;48.944;9.240;2023-05-07T11:53:52;2.10;;;1.90;;
6517;SDS011;3292;48.944;9.240;2023-05-07T11:56:20;2.00;;;1.90;;
6517;SDS011;3292;48.944;9.240;2023-05-07T11:58:47;2.75;;;2.10;;
6517;SDS011;3292;48.944;9.240;2023-05-07T12:01:17;3.28;;;1.88;;
6517;SDS011;3292;48.944;9.240;2023-05-07T12:03:44;2.92;;;2.13;;
6517;SDS011;3292;48.944;9.240;2023-05-07T12:06:14;1.88;;;1.70;;
6517;SDS011;3292;48.944;9.240;2023-05-07T12:08:45;2.67;;;2.00;;
6517;SDS011;3292;48.944;9.240;2023-05-07T12:11:13;2.38;;;1.83;;
6517;SDS011;3292;48.944;9.240;2023-05-07T12:13:43;3.35;;;2.17;;
6517;SDS011;3292;48.944;9.240;2023-05-07T12:16:11;2.42;;;1.70;;
6517;SDS011;3292;48.944;9.240;2023-05-07T12:18:38;3.72;;;1.77;;
6517;SDS011;3292;48.944;9.240;2023-05-07T12:21:06;3.45;;;2.15;;
6517;SDS011;3292;48.944;9.240;2023-05-07T12:23:36;2.70;;;2.13;;
6517;SDS011;3292;48.944;9.240;2023-05-07T12:26:04;4.50;;;2.47;;
6517;SDS011;3292;48.944;9.240;2023-05-07T12:28:36;3.70;;;2.10;;
6517;SDS011;3292;48.944;9.240;2023-05-07T12:31:04;3.67;;;2.10;;
6517;SDS011;3292;48.944;9.240;2023-05-07T12:33:33;2.45;;;1.90;;
6517;SDS011;3292;48.944;9.240;2023-05-07T12:36:03;2.55;;;1.98;;
6517;SDS011;3292;48.944;9.240;2023-05-07T12:38:37;2.25;;;2.05;;
6517;SDS011;3292;48.944;9.240;2023-05-07T12:41:06;3.83;;;1.98;;
6517;SDS011;3292;48.944;9.240;2023-05-07T12:43:35;2.17;;;2.00;;
6517;SDS011;3292;48.944;9.240;2023-05-07T12:46:03;3.35;;;1.95;;
6517;SDS011;3292;48.944;9.240;2023-05-07T12:48:32;4.30;;;1.80;;
6517;SDS011;3292;48.944;9.240;2023-05-07T12:51:00;3.25;;;2.10;;
6517;SDS011;3292;48.944;9.240;2023-05-07T12:53:28;2.13;;;1.85;;
6517;SDS011;3292;48.944;9.240;2023-05-07T12:55:58;2.08;;;1.85;;
6517;SDS011;3292;48.944;9.240;2023-05-07T12:58:26;2.17;;;1.98;;
6517;SDS011;3292;48.944;9.240;2023-05-07T13:00:55;2.28;;;2.03;;
6517;SDS011;3292;48.944;9.240;2023-05-07T13:03:26;1.95;;;1.85;;
6517;SDS011;3292;48.944;9.240;2023-05-07T13:05:54;2.90;;;1.85;;
6517;SDS011;3292;48.944;9.240;2023-05-07T13:08:26;2.55;;;2.00;;
6517;SDS011;3292;48.944;9.240;2023-05-07T13:10:55;2.10;;;1.90;;
6517;SDS011;3292;48.944;9.240;2023-05-07T13:13:25;2.30;;;1.90;;
6517;SDS011;3292;48.944;9.240;2023-05-07T13:15:52;2.00;;;1.90;;
6517;SDS011;3292;48.944;9.240;2023-05-07T13:18:19;2.38;;;2.17;;
6517;SDS011;3292;48.944;9.240;2023-05-07T13:20:46;3.15;;;1.98;;
6517;SDS011;3292;48.944;9.240;2023-05-07T13:23:13;3.50;;;2.35;;
6517;SDS011;3292;48.944;9.240;2023-05-07T13:25:41;2.60;;;2.40;;
6517;SDS011;3292;48.944;9.240;2023-05-07T13:28:12;2.58;;;2.38;;
6517;SDS011;3292;48.944;9.240;2023-05-07T13:30:39;2.00;;;1.90;;
6517;SDS011;3292;48.944;9.240;2023-05-07T13:33:07;3.20;;;2.38;;
6517;SDS011;3292;48.944;9.240;2023-05-07T13:35:34;4.38;;;2.70;;
6517;SDS011;3292;48.944;9.240;2023-05-07T13:38:02;4.23;;;2.30;;
6517;SDS011;3292;48.944;9.240;2023-05-07T13:40:30;3.17;;;2.60;;
6517;SDS011;3292;48.944;9.240;2023-05-07T13:42:57;2.50;;;2.30;;
6517;SDS011;3292;48.944;9.240;2023-05-07T13:45:28;1.97;;;1.87;;
6517;SDS011;3292;48.944;9.240;2023-05-07T13:47:56;2.83;;;1.93;;
6517;SDS011;3292;48.944;9.240;2023-05-07T13:50:24;2.17;;;1.70;;
6517;SDS011;3292;48.944;9.240;2023-05-07T13:52:52;2.87;;;1.80;;
6517;SDS011;3292;48.944;9.240;2023-05-07T13:55:19;2.60;;;1.80;;
6517;SDS011;3292;48.944;9.240;2023-05-07T13:57:53;2.07;;;1.80;;
6517;SDS011;3292;48.944;9.240;2023-05-07T14:00:22;1.90;;;1.80;;
6517;SDS011;3292;48.944;9.240;2023-05-07T14:02:54;2.53;;;1.77;;
6517;SDS011;3292;48.944;9.240;2023-05-07T14:05:21;1.80;;;1.50;;
6517;SDS011;3292;48.944;9.240;2023-05-07T14:07:49;1.50;;;1.40;;
6517;SDS011;3292;48.944;9.240;2023-05-07T14:10:17;1.93;;;1.50;;
6517;SDS011;3292;48.944;9.240;2023-05-07T14:12:45;1.40;;;1.30;;
6517;SDS011;3292;48.944;9.240;2023-05-07T14:15:12;3.33;;;1.37;;
6517;SDS011;3292;48.944;9.240;2023-05-07T14:17:41;1.73;;;1.40;;
6517;SDS011;3292;48.944;9.240;2023-05-07T14:20:10;1.70;;;1.60;;
6517;SDS011;3292;48.944;9.240;2023-05-07T14:22:38;1.93;;;1.50;;
6517;SDS011;3292;48.944;9.240;2023-05-07T14:25:06;2.27;;;1.60;;
6517;SDS011;3292;48.944;9.240;2023-05-07T14:27:34;2.30;;;1.70;;
6517;SDS011;3292;48.944;9.240;2023-05-07T14:30:01;2.03;;;1.83;;
6517;SDS011;3292;48.944;9.240;2023-05-07T14:32:28;3.40;;;2.10;;
6517;SDS011;3292;48.944;9.240;2023-05-07T14:34:55;4.30;;;1.97;;
6517;SDS011;3292;48.944;9.240;2023-05-07T14:37:23;3.33;;;2.00;;
6517;SDS011;3292;48.944;9.240;2023-05-07T14:39:50;5.07;;;1.97;;
6517;SDS011;3292;48.944;9.240;2023-05-07T14:42:17;3.00;;;1.90;;
6517;SDS011;3292;48.944;9.240;2023-05-07T14:44:44;4.27;;;2.10;;
6517;SDS011;3292;48.944;9.240;2023-05-07T14:47:11;2.77;;;2.10;;
6517;SDS011;3292;48.944;9.240;2023-05-07T14:49:38;3.50;;;1.87;;
6517;SDS011;3292;48.944;9.240;2023-05-07T14:52:05;2.03;;;1.80;;
6517;SDS011;3292;48.944;9.240;2023-05-07T14:54:35;2.63;;;1.90;;
6517;SDS011;3292;48.944;9.240;2023-05-07T14:57:04;4.50;;;2.10;;
6517;SDS011;3292;48.944;9.240;2023-05-07T14:59:31;2.30;;;2.10;;
6517;SDS011;3292;48.944;9.240;2023-05-07T15:01:58;3.10;;;2.47;;
6517;SDS011;3292;48.944;9.240;2023-05-07T15:04:25;2.67;;;2.47;;
6517;SDS011;3292;48.944;9.240;2023-05-07T15:06:52;3.40;;;2.70;;
6517;SDS011;3292;48.944;9.240;2023-05-07T15:09:21;2.57;;;2.37;;
6517;SDS011;3292;48.944;9.240;2023-05-07T15:11:49;2.60;;;2.40;;
6517;SDS011;3292;48.944;9.240;2023-05-07T15:14:16;4.90;;;2.50;;
6517;SDS011;3292;48.944;9.240;2023-05-07T15:16:43;3.60;;;2.80;;
6517;SDS011;3292;48.944;9.240;2023-05-07T15:19:10;4.27;;;2.40;;
6517;SDS011;3292;48.944;9.240;2023-05-07T15:21:37;3.73;;;2.57;;
6517;SDS011;3292;48.944;9.240;2023-05-07T15:24:04;3.60;;;2.77;;
6517;SDS011;3292;48.944;9.240;2023-05-07T15:26:31;2.53;;;2.33;;
6517;SDS011;3292;48.944;9.240;2023-05-07T15:28:59;5.87;;;2.90;;
6517;SDS011;3292;48.944;9.240;2023-05-07T15:31:28;3.10;;;2.67;;